Beef Island, British Virgin Islands

2:25 AM AST on October 02, 2014 (GMT -0400)
Sopers Hole | Change Station
CLOSE
Current Station
Personal Weather Station
Location: Tortola, TORTOLA
Elevation: 36 ft
Nearby Weather Stations

Elev 36 ft 18.38 °N, 64.70 °W | Updated 7 seconds ago

Rain
Rain
81.1 °F
Feels Like 88 °F
N
2.0
Wind Variable Wind from SE
Gusts 9.0 mph

Today
High -- | Low -- °F
--% Chance of Precip.
Yesterday
High -- | Low -- °F
Precip. -- in
6:08 AM 6:05 PM
First Quarter, 55% visible
Pressure 30.01 in
Visibility 10.0 miles
Clouds Clear
Heat Index 88 °F
Dew Point 77 °F
Humidity 87%
Rainfall 0.03 in
Snow Depth Not available.
UV 0 out of 12
Pollen Not available.
Air Quality Not available.
Flu Activity Not available.
METAR TIST 020553Z 09007KT 10SM CLR 27/24 A3001 RMK AO2 SLP161 T02720239 10283 20272 58008

More Conditions Fewer Conditions

Pressure 30.01 in
Visibility 10.0 miles
Clouds Clear
Heat Index 88 °F
Dew Point 77 °F
Humidity 87%
Rainfall 0.03 in
Snow Depth Not available.
UV 0 out of 12
Pollen Not available.
Air Quality Not available.
Flu Activity Not available.
METAR TIST 020553Z 09007KT 10SM CLR 27/24 A3001 RMK AO2 SLP161 T02720239 10283 20272 58008

More Conditions Fewer Conditions

10-Day Weather Forecast

Almanac

Astronomy

Oct. 02, 2014 Rise Set
Actual Time 6:08 AM AST 6:05 PM AST
Civil Twilight 5:47 AM AST 6:27 PM AST
Nautical Twilight 5:21 AM AST 6:52 PM AST
Astronomical Twilight 4:56 AM AST 7:18 PM AST
Moon 1:25 PM AST 12:07 AM AST
Length of Visible Light 12h 40m
Length of Day
11h 56m
Tomorrow will be 1m 2s shorter.
First Quarter, 55% of the Moon is Illuminated
Today
First Quarter
Oct 8
Full
Oct 15
Last Quarter
Oct 23
New
Oct 30
First Quarter

Yesterday's Extremes

Country Highs Country Lows

Community

WunderPhotos

Upload Photos

1,758,198 photos uploaded!

WunderBlogs® & News

Nearby

Snow Depth

Not available.

Earthquake Activity

City Distance Mag. Time & Date
No recent earthquake activity has been reported nearby.
Minimum magnitude displayed is 2.5.

Coastal Water Temperatures

Place Temperature
No Stations Reporting

Nearby Weather Stations